sensor_id;sensor_type;location;lat;lon;timestamp;temperature;humidity
6536;DHT22;34330;52.08032700;5.40923460;2023-12-20T00:00:15;10.10;97.60
6536;DHT22;34330;52.08032700;5.40923460;2023-12-20T00:02:43;10.10;97.60
6536;DHT22;34330;52.08032700;5.40923460;2023-12-20T00:05:16;10.20;97.60
6536;DHT22;34330;52.08032700;5.40923460;2023-12-20T00:07:45;10.10;97.50
6536;DHT22;34330;52.08032700;5.40923460;2023-12-20T00:10:15;10.10;97.40
6536;DHT22;34330;52.08032700;5.40923460;2023-12-20T00:12:43;10.00;97.40
6536;DHT22;34330;52.08032700;5.40923460;2023-12-20T00:15:11;10.00;97.40
6536;DHT22;34330;52.08032700;5.40923460;2023-12-20T00:17:39;10.00;97.40
6536;DHT22;34330;52.08032700;5.40923460;2023-12-20T00:20:08;10.00;97.20
6536;DHT22;34330;52.08032700;5.40923460;2023-12-20T00:22:36;9.90;97.80
6536;DHT22;34330;52.08032700;5.40923460;2023-12-20T00:25:05;9.90;97.80
6536;DHT22;34330;52.08032700;5.40923460;2023-12-20T00:27:34;9.90;97.70
6536;DHT22;34330;52.08032700;5.40923460;2023-12-20T00:30:02;9.90;97.70
6536;DHT22;34330;52.08032700;5.40923460;2023-12-20T00:32:31;9.90;97.70
6536;DHT22;34330;52.08032700;5.40923460;2023-12-20T00:34:59;9.90;97.60
6536;DHT22;34330;52.08032700;5.40923460;2023-12-20T00:37:27;9.80;97.60
6536;DHT22;34330;52.08032700;5.40923460;2023-12-20T00:39:55;9.80;97.60
6536;DHT22;34330;52.08032700;5.40923460;2023-12-20T00:42:23;10.20;97.30
6536;DHT22;34330;52.08032700;5.40923460;2023-12-20T00:44:52;9.80;97.50
6536;DHT22;34330;52.08032700;5.40923460;2023-12-20T00:47:20;10.20;97.20
6536;DHT22;34330;52.08032700;5.40923460;2023-12-20T00:49:48;9.70;97.60
6536;DHT22;34330;52.08032700;5.40923460;2023-12-20T00:52:17;9.70;97.40
6536;DHT22;34330;52.08032700;5.40923460;2023-12-20T00:54:45;9.60;97.50
6536;DHT22;34330;52.08032700;5.40923460;2023-12-20T00:57:16;9.70;97.60
6536;DHT22;34330;52.08032700;5.40923460;2023-12-20T00:59:44;10.20;97.30
6536;DHT22;34330;52.08032700;5.40923460;2023-12-20T01:02:16;9.60;97.50
6536;DHT22;34330;52.08032700;5.40923460;2023-12-20T01:04:44;9.50;97.50
6536;DHT22;34330;52.08032700;5.40923460;2023-12-20T01:07:12;9.50;97.50
6536;DHT22;34330;52.08032700;5.40923460;2023-12-20T01:09:40;9.50;97.50
6536;DHT22;34330;52.08032700;5.40923460;2023-12-20T01:12:08;9.50;97.60
6536;DHT22;34330;52.08032700;5.40923460;2023-12-20T01:14:36;9.50;97.60
6536;DHT22;34330;52.08032700;5.40923460;2023-12-20T01:17:06;9.40;97.50
6536;DHT22;34330;52.08032700;5.40923460;2023-12-20T01:19:35;9.40;97.50
6536;DHT22;34330;52.08032700;5.40923460;2023-12-20T01:22:04;9.30;97.50
6536;DHT22;34330;52.08032700;5.40923460;2023-12-20T01:24:32;9.30;97.60
6536;DHT22;34330;52.08032700;5.40923460;2023-12-20T01:27:00;9.30;97.60
6536;DHT22;34330;52.08032700;5.40923460;2023-12-20T01:29:28;9.30;97.70
6536;DHT22;34330;52.08032700;5.40923460;2023-12-20T01:31:56;9.30;97.70
6536;DHT22;34330;52.08032700;5.40923460;2023-12-20T01:34:24;9.30;97.70
6536;DHT22;34330;52.08032700;5.40923460;2023-12-20T01:36:53;9.20;97.70
6536;DHT22;34330;52.08032700;5.40923460;2023-12-20T01:39:21;9.20;97.80
6536;DHT22;34330;52.08032700;5.40923460;2023-12-20T01:41:55;9.20;97.90
6536;DHT22;34330;52.08032700;5.40923460;2023-12-20T01:44:23;9.80;98.20
6536;DHT22;34330;52.08032700;5.40923460;2023-12-20T01:46:51;9.20;97.90
6536;DHT22;34330;52.08032700;5.40923460;2023-12-20T01:49:19;9.20;98.00
6536;DHT22;34330;52.08032700;5.40923460;2023-12-20T01:51:49;9.20;98.10
6536;DHT22;34330;52.08032700;5.40923460;2023-12-20T01:54:19;9.20;98.00
6536;DHT22;34330;52.08032700;5.40923460;2023-12-20T01:56:49;9.20;98.10
6536;DHT22;34330;52.08032700;5.40923460;2023-12-20T01:59:19;9.20;98.10
6536;DHT22;34330;52.08032700;5.40923460;2023-12-20T02:01:48;10.50;98.30
6536;DHT22;34330;52.08032700;5.40923460;2023-12-20T02:04:16;9.20;98.10
6536;DHT22;34330;52.08032700;5.40923460;2023-12-20T02:06:46;9.20;98.20
6536;DHT22;34330;52.08032700;5.40923460;2023-12-20T02:09:15;9.20;98.20
6536;DHT22;34330;52.08032700;5.40923460;2023-12-20T02:11:44;9.50;98.40
6536;DHT22;34330;52.08032700;5.40923460;2023-12-20T02:14:12;9.20;98.30
6536;DHT22;34330;52.08032700;5.40923460;2023-12-20T02:16:41;9.20;98.20
6536;DHT22;34330;52.08032700;5.40923460;2023-12-20T02:19:13;9.30;98.30
6536;DHT22;34330;52.08032700;5.40923460;2023-12-20T02:21:43;9.30;98.30
6536;DHT22;34330;52.08032700;5.40923460;2023-12-20T02:24:11;9.30;98.30
6536;DHT22;34330;52.08032700;5.40923460;2023-12-20T02:26:39;9.30;98.30
6536;DHT22;34330;52.08032700;5.40923460;2023-12-20T02:29:12;9.30;98.40
6536;DHT22;34330;52.08032700;5.40923460;2023-12-20T02:31:40;9.30;98.40
6536;DHT22;34330;52.08032700;5.40923460;2023-12-20T02:34:08;9.30;98.40
6536;DHT22;34330;52.08032700;5.40923460;2023-12-20T02:36:36;9.40;98.40
6536;DHT22;34330;52.08032700;5.40923460;2023-12-20T02:39:06;9.40;98.40
6536;DHT22;34330;52.08032700;5.40923460;2023-12-20T02:41:34;9.40;98.40
6536;DHT22;34330;52.08032700;5.40923460;2023-12-20T02:44:03;9.40;98.40
6536;DHT22;34330;52.08032700;5.40923460;2023-12-20T02:46:31;9.40;98.40
6536;DHT22;34330;52.08032700;5.40923460;2023-12-20T02:48:59;9.40;98.30
6536;DHT22;34330;52.08032700;5.40923460;2023-12-20T02:51:27;9.40;98.40
6536;DHT22;34330;52.08032700;5.40923460;2023-12-20T02:53:57;9.40;98.40
6536;DHT22;34330;52.08032700;5.40923460;2023-12-20T02:56:26;9.40;98.40
6536;DHT22;34330;52.08032700;5.40923460;2023-12-20T02:58:54;9.50;98.40
6536;DHT22;34330;52.08032700;5.40923460;2023-12-20T03:01:22;9.50;98.50
6536;DHT22;34330;52.08032700;5.40923460;2023-12-20T03:03:50;9.50;98.50
6536;DHT22;34330;52.08032700;5.40923460;2023-12-20T03:06:19;9.50;98.40
6536;DHT22;34330;52.08032700;5.40923460;2023-12-20T03:08:47;9.50;98.50
6536;DHT22;34330;52.08032700;5.40923460;2023-12-20T03:11:15;10.50;98.40
6536;DHT22;34330;52.08032700;5.40923460;2023-12-20T03:13:44;9.60;98.50
6536;DHT22;34330;52.08032700;5.40923460;2023-12-20T03:16:16;9.50;98.40
6536;DHT22;34330;52.08032700;5.40923460;2023-12-20T03:18:44;9.60;98.30
6536;DHT22;34330;52.08032700;5.40923460;2023-12-20T03:21:12;9.50;98.40
6536;DHT22;34330;52.08032700;5.40923460;2023-12-20T03:23:42;10.20;98.20
6536;DHT22;34330;52.08032700;5.40923460;2023-12-20T03:26:11;9.60;98.50
6536;DHT22;34330;52.08032700;5.40923460;2023-12-20T03:28:39;9.60;98.50
6536;DHT22;34330;52.08032700;5.40923460;2023-12-20T03:31:09;9.60;98.40
6536;DHT22;34330;52.08032700;5.40923460;2023-12-20T03:33:37;9.70;98.50
6536;DHT22;34330;52.08032700;5.40923460;2023-12-20T03:36:06;9.70;98.40
6536;DHT22;34330;52.08032700;5.40923460;2023-12-20T03:38:34;9.60;98.30
6536;DHT22;34330;52.08032700;5.40923460;2023-12-20T03:41:02;9.60;98.30
6536;DHT22;34330;52.08032700;5.40923460;2023-12-20T03:43:33;9.70;98.30
6536;DHT22;34330;52.08032700;5.40923460;2023-12-20T03:46:01;11.40;98.60
6536;DHT22;34330;52.08032700;5.40923460;2023-12-20T03:48:32;9.70;98.30
6536;DHT22;34330;52.08032700;5.40923460;2023-12-20T03:50:59;10.70;98.20
6536;DHT22;34330;52.08032700;5.40923460;2023-12-20T03:53:27;10.60;98.10
6536;DHT22;34330;52.08032700;5.40923460;2023-12-20T03:55:55;9.70;98.20
6536;DHT22;34330;52.08032700;5.40923460;2023-12-20T03:58:23;9.70;98.20
6536;DHT22;34330;52.08032700;5.40923460;2023-12-20T04:00:51;9.70;98.20
6536;DHT22;34330;52.08032700;5.40923460;2023-12-20T04:03:19;9.70;98.20
6536;DHT22;34330;52.08032700;5.40923460;2023-12-20T04:05:49;9.70;98.10
6536;DHT22;34330;52.08032700;5.40923460;2023-12-20T04:08:17;9.70;98.20
6536;DHT22;34330;52.08032700;5.40923460;2023-12-20T04:10:45;9.70;98.10
6536;DHT22;34330;52.08032700;5.40923460;2023-12-20T04:13:14;9.70;98.20
6536;DHT22;34330;52.08032700;5.40923460;2023-12-20T04:15:42;10.00;97.80
6536;DHT22;34330;52.08032700;5.40923460;2023-12-20T04:18:10;9.90;98.30
6536;DHT22;34330;52.08032700;5.40923460;2023-12-20T04:20:38;9.70;98.20
6536;DHT22;34330;52.08032700;5.40923460;2023-12-20T04:23:07;9.70;98.10
6536;DHT22;34330;52.08032700;5.40923460;2023-12-20T04:25:35;9.80;98.10
6536;DHT22;34330;52.08032700;5.40923460;2023-12-20T04:28:03;9.70;98.10
6536;DHT22;34330;52.08032700;5.40923460;2023-12-20T04:30:31;9.80;98.10
6536;DHT22;34330;52.08032700;5.40923460;2023-12-20T04:32:59;9.80;98.10
6536;DHT22;34330;52.08032700;5.40923460;2023-12-20T04:35:27;9.80;98.10
6536;DHT22;34330;52.08032700;5.40923460;2023-12-20T04:37:55;9.80;98.10
6536;DHT22;34330;52.08032700;5.40923460;2023-12-20T04:40:24;10.80;98.00
6536;DHT22;34330;52.08032700;5.40923460;2023-12-20T04:42:52;9.80;98.10
6536;DHT22;34330;52.08032700;5.40923460;2023-12-20T04:45:20;9.80;98.10
6536;DHT22;34330;52.08032700;5.40923460;2023-12-20T04:47:50;9.80;98.00
6536;DHT22;34330;52.08032700;5.40923460;2023-12-20T04:50:18;10.20;97.60
6536;DHT22;34330;52.08032700;5.40923460;2023-12-20T04:52:46;9.90;98.00
6536;DHT22;34330;52.08032700;5.40923460;2023-12-20T04:55:15;9.90;97.90
6536;DHT22;34330;52.08032700;5.40923460;2023-12-20T04:57:45;9.90;97.90
6536;DHT22;34330;52.08032700;5.40923460;2023-12-20T05:00:14;9.90;97.80
6536;DHT22;34330;52.08032700;5.40923460;2023-12-20T05:02:42;10.00;97.50
6536;DHT22;34330;52.08032700;5.40923460;2023-12-20T05:05:10;10.00;97.40
6536;DHT22;34330;52.08032700;5.40923460;2023-12-20T05:07:38;10.00;97.40
6536;DHT22;34330;52.08032700;5.40923460;2023-12-20T05:10:07;10.00;97.40
6536;DHT22;34330;52.08032700;5.40923460;2023-12-20T05:12:35;10.00;97.40
6536;DHT22;34330;52.08032700;5.40923460;2023-12-20T05:15:06;10.00;97.40
6536;DHT22;34330;52.08032700;5.40923460;2023-12-20T05:17:34;10.10;97.40
6536;DHT22;34330;52.08032700;5.40923460;2023-12-20T05:20:03;10.10;97.30
6536;DHT22;34330;52.08032700;5.40923460;2023-12-20T05:22:31;10.10;97.40
6536;DHT22;34330;52.08032700;5.40923460;2023-12-20T05:24:59;10.10;97.30
6536;DHT22;34330;52.08032700;5.40923460;2023-12-20T05:27:27;10.10;97.30
6536;DHT22;34330;52.08032700;5.40923460;2023-12-20T05:29:57;10.10;97.30
6536;DHT22;34330;52.08032700;5.40923460;2023-12-20T05:32:27;10.10;97.30
6536;DHT22;34330;52.08032700;5.40923460;2023-12-20T05:34:57;10.10;97.30
6536;DHT22;34330;52.08032700;5.40923460;2023-12-20T05:37:25;10.20;97.30
6536;DHT22;34330;52.08032700;5.40923460;2023-12-20T05:39:53;10.20;97.30
6536;DHT22;34330;52.08032700;5.40923460;2023-12-20T05:42:21;10.20;97.20
6536;DHT22;34330;52.08032700;5.40923460;2023-12-20T05:44:52;10.20;97.20
6536;DHT22;34330;52.08032700;5.40923460;2023-12-20T05:47:22;10.10;97.20
6536;DHT22;34330;52.08032700;5.40923460;2023-12-20T05:49:52;10.20;97.20
6536;DHT22;34330;52.08032700;5.40923460;2023-12-20T05:52:20;10.20;97.20
6536;DHT22;34330;52.08032700;5.40923460;2023-12-20T05:54:49;10.20;97.20
6536;DHT22;34330;52.08032700;5.40923460;2023-12-20T05:57:17;10.30;97.10
6536;DHT22;34330;52.08032700;5.40923460;2023-12-20T05:59:45;10.20;97.10
6536;DHT22;34330;52.08032700;5.40923460;2023-12-20T06:02:14;10.20;97.10
6536;DHT22;34330;52.08032700;5.40923460;2023-12-20T06:04:42;11.00;97.40
6536;DHT22;34330;52.08032700;5.40923460;2023-12-20T06:07:12;10.20;97.00
6536;DHT22;34330;52.08032700;5.40923460;2023-12-20T06:09:40;10.20;96.90
6536;DHT22;34330;52.08032700;5.40923460;2023-12-20T06:12:08;10.50;97.20
6536;DHT22;34330;52.08032700;5.40923460;2023-12-20T06:14:36;10.30;96.90
6536;DHT22;34330;52.08032700;5.40923460;2023-12-20T06:17:04;10.30;97.00
6536;DHT22;34330;52.08032700;5.40923460;2023-12-20T06:19:32;10.30;97.00
6536;DHT22;34330;52.08032700;5.40923460;2023-12-20T06:22:00;11.20;97.30
6536;DHT22;34330;52.08032700;5.40923460;2023-12-20T06:24:30;10.30;96.80
6536;DHT22;34330;52.08032700;5.40923460;2023-12-20T06:27:00;10.30;96.80
6536;DHT22;34330;52.08032700;5.40923460;2023-12-20T06:29:28;10.30;96.90
6536;DHT22;34330;52.08032700;5.40923460;2023-12-20T06:31:57;10.30;96.90
6536;DHT22;34330;52.08032700;5.40923460;2023-12-20T06:34:25;10.40;96.90
6536;DHT22;34330;52.08032700;5.40923460;2023-12-20T06:36:53;10.30;96.80
6536;DHT22;34330;52.08032700;5.40923460;2023-12-20T06:39:21;10.30;96.80
6536;DHT22;34330;52.08032700;5.40923460;2023-12-20T06:41:54;10.30;96.80
6536;DHT22;34330;52.08032700;5.40923460;2023-12-20T06:44:21;10.30;96.70
6536;DHT22;34330;52.08032700;5.40923460;2023-12-20T06:46:52;10.30;96.80
6536;DHT22;34330;52.08032700;5.40923460;2023-12-20T06:49:20;11.10;97.10
6536;DHT22;34330;52.08032700;5.40923460;2023-12-20T06:51:48;10.40;96.80
6536;DHT22;34330;52.08032700;5.40923460;2023-12-20T06:54:16;10.40;96.80
6536;DHT22;34330;52.08032700;5.40923460;2023-12-20T06:56:44;10.40;96.80
6536;DHT22;34330;52.08032700;5.40923460;2023-12-20T06:59:14;10.70;96.90
6536;DHT22;34330;52.08032700;5.40923460;2023-12-20T07:01:42;11.50;97.30
6536;DHT22;34330;52.08032700;5.40923460;2023-12-20T07:04:10;10.40;96.80
6536;DHT22;34330;52.08032700;5.40923460;2023-12-20T07:06:38;10.40;96.80
6536;DHT22;34330;52.08032700;5.40923460;2023-12-20T07:09:07;10.40;96.80
6536;DHT22;34330;52.08032700;5.40923460;2023-12-20T07:11:34;10.40;96.80
6536;DHT22;34330;52.08032700;5.40923460;2023-12-20T07:14:02;10.40;96.80
6536;DHT22;34330;52.08032700;5.40923460;2023-12-20T07:16:32;10.40;96.90
6536;DHT22;34330;52.08032700;5.40923460;2023-12-20T07:19:00;10.40;96.90
6536;DHT22;34330;52.08032700;5.40923460;2023-12-20T07:21:27;10.40;96.90
6536;DHT22;34330;52.08032700;5.40923460;2023-12-20T07:23:57;10.70;96.90
6536;DHT22;34330;52.08032700;5.40923460;2023-12-20T07:26:25;10.40;96.90
6536;DHT22;34330;52.08032700;5.40923460;2023-12-20T07:28:53;11.50;97.30
6536;DHT22;34330;52.08032700;5.40923460;2023-12-20T07:31:22;10.40;96.80
6536;DHT22;34330;52.08032700;5.40923460;2023-12-20T07:33:52;10.40;96.80
6536;DHT22;34330;52.08032700;5.40923460;2023-12-20T07:36:20;10.40;96.90
6536;DHT22;34330;52.08032700;5.40923460;2023-12-20T07:38:49;10.40;96.90
6536;DHT22;34330;52.08032700;5.40923460;2023-12-20T07:41:17;10.40;96.60
6536;DHT22;34330;52.08032700;5.40923460;2023-12-20T07:43:47;10.50;96.90
6536;DHT22;34330;52.08032700;5.40923460;2023-12-20T07:46:16;10.50;96.90
6536;DHT22;34330;52.08032700;5.40923460;2023-12-20T07:48:45;11.10;97.10
6536;DHT22;34330;52.08032700;5.40923460;2023-12-20T07:51:14;10.50;96.80
6536;DHT22;34330;52.08032700;5.40923460;2023-12-20T07:53:42;10.50;96.80
6536;DHT22;34330;52.08032700;5.40923460;2023-12-20T07:56:14;10.50;96.80
6536;DHT22;34330;52.08032700;5.40923460;2023-12-20T07:58:43;10.60;96.80
6536;DHT22;34330;52.08032700;5.40923460;2023-12-20T08:01:19;10.50;96.80
6536;DHT22;34330;52.08032700;5.40923460;2023-12-20T08:03:48;10.60;96.80
6536;DHT22;34330;52.08032700;5.40923460;2023-12-20T08:06:18;12.10;97.50
6536;DHT22;34330;52.08032700;5.40923460;2023-12-20T08:08:46;10.60;96.80
6536;DHT22;34330;52.08032700;5.40923460;2023-12-20T08:11:27;10.60;96.80
6536;DHT22;34330;52.08032700;5.40923460;2023-12-20T08:13:57;10.70;96.90
6536;DHT22;34330;52.08032700;5.40923460;2023-12-20T08:16:25;10.60;96.80
6536;DHT22;34330;52.08032700;5.40923460;2023-12-20T08:18:54;10.60;96.60
6536;DHT22;34330;52.08032700;5.40923460;2023-12-20T08:21:24;10.60;96.70
6536;DHT22;34330;52.08032700;5.40923460;2023-12-20T08:23:52;10.60;96.60
6536;DHT22;34330;52.08032700;5.40923460;2023-12-20T08:26:20;10.70;96.80
6536;DHT22;34330;52.08032700;5.40923460;2023-12-20T08:28:52;10.70;96.80
6536;DHT22;34330;52.08032700;5.40923460;2023-12-20T08:31:20;10.70;96.60
6536;DHT22;34330;52.08032700;5.40923460;2023-12-20T08:33:49;10.70;96.70
6536;DHT22;34330;52.08032700;5.40923460;2023-12-20T08:36:18;11.60;97.40
6536;DHT22;34330;52.08032700;5.40923460;2023-12-20T08:38:51;10.70;96.80
6536;DHT22;34330;52.08032700;5.40923460;2023-12-20T08:41:19;10.70;96.60
6536;DHT22;34330;52.08032700;5.40923460;2023-12-20T08:43:47;10.80;96.70
6536;DHT22;34330;52.08032700;5.40923460;2023-12-20T08:46:16;11.00;96.90
6536;DHT22;34330;52.08032700;5.40923460;2023-12-20T08:48:44;10.80;96.70
6536;DHT22;34330;52.08032700;5.40923460;2023-12-20T08:51:13;10.80;96.70
6536;DHT22;34330;52.08032700;5.40923460;2023-12-20T08:53:41;10.80;96.70
6536;DHT22;34330;52.08032700;5.40923460;2023-12-20T08:56:13;10.80;96.70
6536;DHT22;34330;52.08032700;5.40923460;2023-12-20T08:58:41;10.80;96.70
6536;DHT22;34330;52.08032700;5.40923460;2023-12-20T09:01:09;10.80;96.70
6536;DHT22;34330;52.08032700;5.40923460;2023-12-20T09:03:38;10.80;96.70
6536;DHT22;34330;52.08032700;5.40923460;2023-12-20T09:06:07;10.80;96.70
6536;DHT22;34330;52.08032700;5.40923460;2023-12-20T09:08:34;10.80;96.70
6536;DHT22;34330;52.08032700;5.40923460;2023-12-20T09:11:03;10.80;96.70
6536;DHT22;34330;52.08032700;5.40923460;2023-12-20T09:13:32;10.80;96.70
6536;DHT22;34330;52.08032700;5.40923460;2023-12-20T09:16:00;11.50;97.10
6536;DHT22;34330;52.08032700;5.40923460;2023-12-20T09:18:29;10.90;96.80
6536;DHT22;34330;52.08032700;5.40923460;2023-12-20T09:20:57;11.00;96.90
6536;DHT22;34330;52.08032700;5.40923460;2023-12-20T09:23:25;10.80;96.80
6536;DHT22;34330;52.08032700;5.40923460;2023-12-20T09:25:53;11.10;97.00
6536;DHT22;34330;52.08032700;5.40923460;2023-12-20T09:28:24;10.90;96.80
6536;DHT22;34330;52.08032700;5.40923460;2023-12-20T09:30:53;10.90;97.00
6536;DHT22;34330;52.08032700;5.40923460;2023-12-20T09:33:21;12.90;97.80
6536;DHT22;34330;52.08032700;5.40923460;2023-12-20T09:35:50;10.90;97.10
6536;DHT22;34330;52.08032700;5.40923460;2023-12-20T09:38:18;10.90;97.10
6536;DHT22;34330;52.08032700;5.40923460;2023-12-20T09:40:46;10.90;97.10
6536;DHT22;34330;52.08032700;5.40923460;2023-12-20T09:43:19;10.90;97.10
6536;DHT22;34330;52.08032700;5.40923460;2023-12-20T09:45:48;10.90;97.20
6536;DHT22;34330;52.08032700;5.40923460;2023-12-20T09:48:18;10.90;97.40
6536;DHT22;34330;52.08032700;5.40923460;2023-12-20T09:50:48;10.90;97.20
6536;DHT22;34330;52.08032700;5.40923460;2023-12-20T09:53:20;11.00;97.20
6536;DHT22;34330;52.08032700;5.40923460;2023-12-20T09:55:51;11.00;97.20
6536;DHT22;34330;52.08032700;5.40923460;2023-12-20T09:58:20;11.00;97.20
6536;DHT22;34330;52.08032700;5.40923460;2023-12-20T10:00:48;11.10;97.10
6536;DHT22;34330;52.08032700;5.40923460;2023-12-20T10:03:22;11.10;97.00
6536;DHT22;34330;52.08032700;5.40923460;2023-12-20T10:05:54;11.20;97.20
6536;DHT22;34330;52.08032700;5.40923460;2023-12-20T10:08:24;11.70;97.30
6536;DHT22;34330;52.08032700;5.40923460;2023-12-20T10:10:53;11.20;97.00
6536;DHT22;34330;52.08032700;5.40923460;2023-12-20T10:13:22;11.20;96.90
6536;DHT22;34330;52.08032700;5.40923460;2023-12-20T10:15:50;11.30;96.90
6536;DHT22;34330;52.08032700;5.40923460;2023-12-20T10:18:20;11.30;96.80
6536;DHT22;34330;52.08032700;5.40923460;2023-12-20T10:21:03;11.30;96.80
6536;DHT22;34330;52.08032700;5.40923460;2023-12-20T10:23:31;11.40;96.80
6536;DHT22;34330;52.08032700;5.40923460;2023-12-20T10:26:00;11.50;96.80
6536;DHT22;34330;52.08032700;5.40923460;2023-12-20T10:28:33;11.40;96.70
6536;DHT22;34330;52.08032700;5.40923460;2023-12-20T10:31:02;11.40;96.70
6536;DHT22;34330;52.08032700;5.40923460;2023-12-20T10:33:31;11.90;96.90
6536;DHT22;34330;52.08032700;5.40923460;2023-12-20T10:36:00;11.50;96.60
6536;DHT22;34330;52.08032700;5.40923460;2023-12-20T10:38:32;11.50;96.60
6536;DHT22;34330;52.08032700;5.40923460;2023-12-20T10:41:01;11.50;96.50
6536;DHT22;34330;52.08032700;5.40923460;2023-12-20T10:43:33;11.60;96.50
6536;DHT22;34330;52.08032700;5.40923460;2023-12-20T10:46:03;11.60;96.50
6536;DHT22;34330;52.08032700;5.40923460;2023-12-20T10:48:33;11.60;96.50
6536;DHT22;34330;52.08032700;5.40923460;2023-12-20T10:51:03;11.60;96.50
6536;DHT22;34330;52.08032700;5.40923460;2023-12-20T10:53:31;11.60;96.40
6536;DHT22;34330;52.08032700;5.40923460;2023-12-20T10:56:00;11.70;96.40
6536;DHT22;34330;52.08032700;5.40923460;2023-12-20T10:58:32;11.70;96.50
6536;DHT22;34330;52.08032700;5.40923460;2023-12-20T11:01:01;11.70;96.20
6536;DHT22;34330;52.08032700;5.40923460;2023-12-20T11:03:35;11.70;96.30
6536;DHT22;34330;52.08032700;5.40923460;2023-12-20T11:06:07;11.80;96.30
6536;DHT22;34330;52.08032700;5.40923460;2023-12-20T11:08:46;11.80;96.20
6536;DHT22;34330;52.08032700;5.40923460;2023-12-20T11:11:26;11.80;96.00
6536;DHT22;34330;52.08032700;5.40923460;2023-12-20T11:13:58;11.80;96.00
6536;DHT22;34330;52.08032700;5.40923460;2023-12-20T11:16:28;11.70;96.00
6536;DHT22;34330;52.08032700;5.40923460;2023-12-20T11:19:16;11.90;96.10
6536;DHT22;34330;52.08032700;5.40923460;2023-12-20T11:21:46;11.90;96.00
6536;DHT22;34330;52.08032700;5.40923460;2023-12-20T11:24:15;12.00;96.10
6536;DHT22;34330;52.08032700;5.40923460;2023-12-20T11:26:47;12.00;96.10
6536;DHT22;34330;52.08032700;5.40923460;2023-12-20T11:29:31;12.00;96.00
6536;DHT22;34330;52.08032700;5.40923460;2023-12-20T11:32:02;12.10;95.80
6536;DHT22;34330;52.08032700;5.40923460;2023-12-20T11:34:36;12.10;96.00
6536;DHT22;34330;52.08032700;5.40923460;2023-12-20T11:37:04;12.10;95.80
6536;DHT22;34330;52.08032700;5.40923460;2023-12-20T11:39:32;12.10;95.90
6536;DHT22;34330;52.08032700;5.40923460;2023-12-20T11:42:04;12.20;95.80
6536;DHT22;34330;52.08032700;5.40923460;2023-12-20T11:44:35;12.20;95.70
6536;DHT22;34330;52.08032700;5.40923460;2023-12-20T11:47:04;12.20;95.70
6536;DHT22;34330;52.08032700;5.40923460;2023-12-20T11:49:33;12.20;95.60
6536;DHT22;34330;52.08032700;5.40923460;2023-12-20T11:52:01;12.20;95.60
6536;DHT22;34330;52.08032700;5.40923460;2023-12-20T11:54:30;12.30;95.60
6536;DHT22;34330;52.08032700;5.40923460;2023-12-20T11:56:58;12.10;95.50
6536;DHT22;34330;52.08032700;5.40923460;2023-12-20T11:59:26;12.30;95.40
6536;DHT22;34330;52.08032700;5.40923460;2023-12-20T12:01:54;12.30;95.40
6536;DHT22;34330;52.08032700;5.40923460;2023-12-20T12:04:27;12.60;95.40
6536;DHT22;34330;52.08032700;5.40923460;2023-12-20T12:06:57;12.30;95.40
6536;DHT22;34330;52.08032700;5.40923460;2023-12-20T12:09:25;12.40;95.30
6536;DHT22;34330;52.08032700;5.40923460;2023-12-20T12:11:53;12.30;95.20
6536;DHT22;34330;52.08032700;5.40923460;2023-12-20T12:14:21;14.20;96.00
6536;DHT22;34330;52.08032700;5.40923460;2023-12-20T12:16:52;12.40;95.20
6536;DHT22;34330;52.08032700;5.40923460;2023-12-20T12:19:21;12.40;95.20
6536;DHT22;34330;52.08032700;5.40923460;2023-12-20T12:21:50;12.40;95.20
6536;DHT22;34330;52.08032700;5.40923460;2023-12-20T12:24:21;12.40;95.20
6536;DHT22;34330;52.08032700;5.40923460;2023-12-20T12:26:52;12.40;95.10
6536;DHT22;34330;52.08032700;5.40923460;2023-12-20T12:29:20;12.40;95.10
6536;DHT22;34330;52.08032700;5.40923460;2023-12-20T12:31:48;12.40;95.00
6536;DHT22;34330;52.08032700;5.40923460;2023-12-20T12:34:17;12.40;95.00
6536;DHT22;34330;52.08032700;5.40923460;2023-12-20T12:36:45;12.40;95.30
6536;DHT22;34330;52.08032700;5.40923460;2023-12-20T12:39:17;12.40;95.20
6536;DHT22;34330;52.08032700;5.40923460;2023-12-20T12:41:46;12.40;95.20
6536;DHT22;34330;52.08032700;5.40923460;2023-12-20T12:44:15;12.50;95.10
6536;DHT22;34330;52.08032700;5.40923460;2023-12-20T12:46:44;12.40;95.10
6536;DHT22;34330;52.08032700;5.40923460;2023-12-20T12:49:13;12.40;95.10
6536;DHT22;34330;52.08032700;5.40923460;2023-12-20T12:51:42;12.40;95.00
6536;DHT22;34330;52.08032700;5.40923460;2023-12-20T12:54:10;12.40;95.00
6536;DHT22;34330;52.08032700;5.40923460;2023-12-20T12:56:40;12.40;95.00
6536;DHT22;34330;52.08032700;5.40923460;2023-12-20T12:59:09;12.80;95.20
6536;DHT22;34330;52.08032700;5.40923460;2023-12-20T13:01:37;12.40;94.90
6536;DHT22;34330;52.08032700;5.40923460;2023-12-20T13:04:06;15.00;96.10
6536;DHT22;34330;52.08032700;5.40923460;2023-12-20T13:06:38;12.50;94.90
6536;DHT22;34330;52.08032700;5.40923460;2023-12-20T13:09:07;12.50;94.90
6536;DHT22;34330;52.08032700;5.40923460;2023-12-20T13:11:36;12.50;94.90
6536;DHT22;34330;52.08032700;5.40923460;2023-12-20T13:14:04;12.50;94.90
6536;DHT22;34330;52.08032700;5.40923460;2023-12-20T13:16:33;12.50;94.90
6536;DHT22;34330;52.08032700;5.40923460;2023-12-20T13:19:02;12.50;94.80
6536;DHT22;34330;52.08032700;5.40923460;2023-12-20T13:21:30;12.50;94.90
6536;DHT22;34330;52.08032700;5.40923460;2023-12-20T13:23:58;12.50;94.90
6536;DHT22;34330;52.08032700;5.40923460;2023-12-20T13:26:27;12.50;94.80
6536;DHT22;34330;52.08032700;5.40923460;2023-12-20T13:28:56;12.50;94.80
6536;DHT22;34330;52.08032700;5.40923460;2023-12-20T13:31:24;12.50;94.80
6536;DHT22;34330;52.08032700;5.40923460;2023-12-20T13:33:54;12.50;94.70
6536;DHT22;34330;52.08032700;5.40923460;2023-12-20T13:36:22;12.50;95.00
6536;DHT22;34330;52.08032700;5.40923460;2023-12-20T13:38:50;12.50;94.80
6536;DHT22;34330;52.08032700;5.40923460;2023-12-20T13:41:18;12.50;94.70
6536;DHT22;34330;52.08032700;5.40923460;2023-12-20T13:43:46;12.50;94.60
6536;DHT22;34330;52.08032700;5.40923460;2023-12-20T13:46:14;12.50;94.70